Time;durP1;ratioP1;P1;durP2;ratioP2;P2;SDS_P1;SDS_P2;PMS_P1;PMS_P2;Temp;Humidity;BMP_temperature;BMP_pressure;BME280_temperature;BME280_humidity;BME280_pressure;Samples;Min_cycle;Max_cycle;Signal;HPM_P1;HPM_P2
2023/10/21 00:02:05;;;;;;;76.05;6.25;;;;;;;7.97;100.00;100446.94;10337033;28;20409;-86
2023/10/21 00:07:06;;;;;;;129.57;6.93;;;;;;;8.00;100.00;100428.94;10336799;28;20034;-87
2023/10/21 00:12:08;;;;;;;102.82;5.65;;;;;;;7.67;100.00;100398.66;10336677;28;20068;-85
2023/10/21 00:17:09;;;;;;;148.02;6.25;;;;;;;7.92;100.00;100455.31;10336409;28;20568;-85
2023/10/21 00:22:10;;;;;;;80.35;5.43;;;;;;;7.76;100.00;100437.44;10336297;28;20141;-88
2023/10/21 00:27:11;;;;;;;115.22;5.70;;;;;;;7.39;100.00;100379.34;10336996;28;20177;-88
2023/10/21 00:32:12;;;;;;;76.78;5.18;;;;;;;6.90;100.00;100285.44;10335224;28;20128;-88
2023/10/21 00:37:13;;;;;;;97.10;5.25;;;;;;;7.73;100.00;100424.53;10335104;28;20117;-86
2023/10/21 00:42:13;;;;;;;72.10;4.85;;;;;;;7.72;100.00;100425.50;10335578;28;20062;-85
2023/10/21 00:47:15;;;;;;;45.95;4.50;;;;;;;7.60;100.00;100389.69;10335681;28;20425;-82
2023/10/21 00:52:16;;;;;;;111.65;5.00;;;;;;;7.44;100.00;100329.50;10335471;28;20046;-82
2023/10/21 00:57:17;;;;;;;82.50;5.28;;;;;;;7.77;100.00;100353.66;10334827;28;20038;-87
2023/10/21 01:02:18;;;;;;;87.07;5.45;;;;;;;7.85;100.00;100352.91;10335010;28;20413;-88
2023/10/21 01:07:18;;;;;;;65.88;4.88;;;;;;;8.08;100.00;100385.88;10335045;28;20049;-90
2023/10/21 01:12:19;;;;;;;104.63;4.95;;;;;;;8.00;100.00;100383.16;10335154;28;20042;-91
2023/10/21 01:17:20;;;;;;;118.82;5.28;;;;;;;8.13;100.00;100418.00;10334740;28;20495;-87
2023/10/21 01:22:21;;;;;;;230.30;7.07;;;;;;;7.92;100.00;100396.28;10333961;28;20046;-86
2023/10/21 01:27:23;;;;;;;146.10;5.22;;;;;;;7.86;100.00;100394.25;10334054;28;20046;-86
2023/10/21 01:32:24;;;;;;;70.30;3.72;;;;;;;8.16;100.00;100438.88;10333677;28;20398;-82
2023/10/21 01:37:25;;;;;;;79.60;3.90;;;;;;;8.09;100.00;100431.69;10332680;28;20073;-87
2023/10/21 01:42:26;;;;;;;66.20;4.05;;;;;;;7.47;100.00;100329.22;10332312;28;20100;-85
2023/10/21 01:47:26;;;;;;;236.48;7.05;;;;;;;7.51;100.00;100377.34;10331687;28;20042;-87
2023/10/21 01:52:27;;;;;;;196.25;5.95;;;;;;;7.49;100.00;100393.34;10333838;28;20038;-91
2023/10/21 01:57:28;;;;;;;117.20;4.57;;;;;;;7.31;100.00;100384.53;10332776;28;20486;-88
2023/10/21 02:02:29;;;;;;;95.07;4.30;;;;;;;7.18;100.00;100365.50;10368677;28;20050;-90
2023/10/21 02:07:36;;;;;;;83.93;4.60;;;;;;;7.58;100.00;100420.72;10345183;28;20034;-91
2023/10/21 02:12:38;;;;;;;135.07;5.40;;;;;;;7.65;100.00;100424.41;10332825;28;20038;-82
2023/10/21 02:17:39;;;;;;;110.97;5.05;;;;;;;7.47;100.00;100411.16;10333239;28;20042;-85
2023/10/21 02:22:40;;;;;;;87.30;4.00;;;;;;;7.62;100.00;100437.94;10331873;28;20046;-83
2023/10/21 02:27:41;;;;;;;73.75;3.60;;;;;;;7.42;100.00;100416.06;10355443;28;20130;-82
2023/10/21 02:32:47;;;;;;;56.38;3.28;;;;;;;7.68;100.00;100445.28;10371198;28;20472;-82
2023/10/21 02:37:47;;;;;;;107.90;3.95;;;;;;;7.25;100.00;100364.81;10372515;28;20136;-82
2023/10/21 02:42:48;;;;;;;80.35;4.15;;;;;;;7.34;100.00;100383.41;10354423;28;20571;-89
2023/10/21 02:47:50;;;;;;;47.17;3.33;;;;;;;7.35;100.00;100391.19;10370541;28;20433;-89
2023/10/21 02:52:51;;;;;;;113.13;5.00;;;;;;;7.58;100.00;100406.66;10371250;28;20065;-81
2023/10/21 02:57:52;;;;;;;81.47;4.15;;;;;;;7.46;100.00;100421.88;10371237;28;20062;-81
2023/10/21 03:02:53;;;;;;;63.08;3.05;;;;;;;7.20;100.00;100401.38;10372549;28;20404;-81
2023/10/21 03:07:54;;;;;;;65.75;4.22;;;;;;;6.15;100.00;100241.34;10372313;28;20038;-81
2023/10/21 03:12:55;;;;;;;125.47;5.38;;;;;;;6.95;100.00;100386.19;10370614;28;20053;-81
2023/10/21 03:17:55;;;;;;;110.47;4.97;;;;;;;6.84;100.00;100371.34;10370954;28;20044;-82
2023/10/21 03:22:56;;;;;;;198.52;5.45;;;;;;;6.51;100.00;100335.72;10371290;28;20069;-82
2023/10/21 03:27:57;;;;;;;149.95;6.82;;;;;;;6.56;100.00;100359.88;10371468;28;20049;-82
2023/10/21 03:32:58;;;;;;;206.95;6.45;;;;;;;6.36;100.00;100332.69;10369523;28;20113;-81
2023/10/21 03:37:59;;;;;;;114.63;4.40;;;;;;;6.39;100.00;100338.50;10374391;28;20457;-81
2023/10/21 03:43:00;;;;;;;99.20;4.65;;;;;;;6.94;100.00;100403.84;10378386;28;20107;-82
2023/10/21 03:48:01;;;;;;;106.75;4.38;;;;;;;6.71;100.00;100366.38;10378414;28;20103;-81
2023/10/21 03:53:02;;;;;;;132.80;4.63;;;;;;;6.84;100.00;100405.66;10377240;28;20045;-82
2023/10/21 03:58:04;;;;;;;253.25;6.47;;;;;;;6.32;100.00;100355.88;10377942;28;20484;-81
2023/10/21 04:03:05;;;;;;;83.05;3.40;;;;;;;6.63;100.00;100421.69;10377111;28;20037;-82
2023/10/21 04:08:06;;;;;;;66.85;3.33;;;;;;;6.65;100.00;100413.63;10377807;28;20088;-86
2023/10/21 04:13:06;;;;;;;57.70;3.25;;;;;;;6.85;100.00;100426.66;10380339;28;20487;-85
2023/10/21 04:18:07;;;;;;;40.63;3.85;;;;;;;5.99;100.00;100282.47;10417381;28;20467;-83
2023/10/21 04:23:08;;;;;;;95.00;4.15;;;;;;;6.75;100.00;100409.97;10417858;28;20072;-84
2023/10/21 04:28:10;;;;;;;41.83;2.92;;;;;;;6.88;100.00;100429.97;10417218;28;20068;-85
2023/10/21 04:33:12;;;;;;;55.00;3.40;;;;;;;6.17;100.00;100308.00;10417624;28;20044;-85
2023/10/21 04:38:13;;;;;;;26.00;3.10;;;;;;;6.99;100.00;100421.91;10417085;28;20124;-85
2023/10/21 04:43:14;;;;;;;40.65;3.45;;;;;;;6.77;100.00;100368.44;10417047;28;20061;-84
2023/10/21 04:48:15;;;;;;;68.43;3.60;;;;;;;6.79;100.00;100368.28;10416411;28;20416;-84
2023/10/21 04:53:16;;;;;;;24.05;3.10;;;;;;;6.99;100.00;100392.84;10416575;28;20038;-85
2023/10/21 04:58:16;;;;;;;89.85;3.97;;;;;;;6.98;100.00;100402.56;10416292;28;20130;-85
2023/10/21 05:03:17;;;;;;;132.60;5.35;;;;;;;7.26;100.00;100440.44;10415497;28;20167;-85
2023/10/21 05:08:18;;;;;;;86.80;4.80;;;;;;;7.08;100.00;100428.97;10398308;28;20520;-85
2023/10/21 05:13:19;;;;;;;69.50;5.82;;;;;;;7.23;100.00;100426.69;10415457;28;20041;-84
2023/10/21 05:18:20;;;;;;;98.85;5.57;;;;;;;7.29;100.00;100426.09;10397156;28;20460;-88
2023/10/21 05:23:21;;;;;;;30.02;5.22;;;;;;;6.97;100.00;100352.53;10397831;28;20072;-84
2023/10/21 05:28:23;;;;;;;29.50;4.93;;;;;;;7.21;100.00;100381.06;10415241;28;20053;-84
2023/10/21 05:33:24;;;;;;;54.97;5.32;;;;;;;7.42;100.00;100400.19;10415140;28;20045;-84
2023/10/21 05:38:26;;;;;;;18.70;4.55;;;;;;;7.41;100.00;100372.09;10338550;28;20129;-83
2023/10/21 05:43:27;;;;;;;25.17;4.32;;;;;;;7.88;100.00;100431.97;10332840;28;20069;-81
2023/10/21 05:48:27;;;;;;;21.80;4.47;;;;;;;7.55;100.00;100352.28;10332536;28;20406;-82
2023/10/21 05:53:29;;;;;;;34.67;5.25;;;;;;;7.73;100.00;100333.78;10333040;28;20038;-85
2023/10/21 05:58:30;;;;;;;48.92;4.82;;;;;;;7.88;100.00;100368.50;10332741;28;20046;-84
2023/10/21 06:03:31;;;;;;;14.30;4.60;;;;;;;8.37;100.00;100427.16;10331798;28;20046;-84
2023/10/21 06:08:32;;;;;;;10.60;5.30;;;;;;;8.16;100.00;100367.41;10332967;28;20096;-84
2023/10/21 06:13:33;;;;;;;10.05;5.60;;;;;;;8.96;100.00;100423.03;10331773;28;20092;-83
2023/10/21 06:18:33;;;;;;;12.60;6.28;;;;;;;9.53;100.00;100414.56;10332062;28;20038;-84
2023/10/21 06:23:34;;;;;;;12.98;5.40;;;;;;;9.95;100.00;100390.63;10331430;28;20050;-83
2023/10/21 06:28:37;;;;;;;7.43;5.28;;;;;;;9.95;100.00;100356.13;10331075;28;20073;-85
2023/10/21 06:33:38;;;;;;;8.27;5.40;;;;;;;10.27;98.03;100330.66;10332322;28;20078;-83
2023/10/21 06:38:39;;;;;;;7.32;4.45;;;;;;;10.33;96.08;100284.84;10351579;28;20070;-79
2023/10/21 06:43:43;;;;;;;7.95;5.10;;;;;;;11.13;95.04;100347.78;10335948;28;20560;-79
2023/10/21 06:48:44;;;;;;;6.70;4.47;;;;;;;11.47;93.60;100367.91;10356915;28;20038;-79
2023/10/21 06:53:45;;;;;;;7.18;5.03;;;;;;;11.61;91.95;100353.91;10367301;28;20045;-79
2023/10/21 06:58:47;;;;;;;6.88;5.15;;;;;;;11.81;90.87;100338.28;10370576;28;20058;-78
2023/10/21 07:03:49;;;;;;;8.90;4.70;;;;;;;12.39;89.83;100344.91;10372593;28;20044;-78
2023/10/21 07:08:51;;;;;;;7.35;5.43;;;;;;;12.41;87.48;100280.75;10371700;28;20100;-78
2023/10/21 07:13:52;;;;;;;6.97;5.10;;;;;;;12.45;86.53;100226.13;10375746;28;20045;-78
2023/10/21 07:18:53;;;;;;;6.68;4.72;;;;;;;13.29;85.44;100322.66;10378945;28;20044;-78
2023/10/21 07:23:54;;;;;;;7.18;5.18;;;;;;;13.65;83.70;100325.31;10378817;28;20079;-78
2023/10/21 07:28:54;;;;;;;5.47;4.40;;;;;;;13.46;82.93;100241.38;10377557;28;20217;-78
2023/10/21 07:33:55;;;;;;;8.15;4.88;;;;;;;14.11;81.23;100319.63;10379729;28;20121;-78
2023/10/21 07:38:57;;;;;;;6.28;5.00;;;;;;;14.07;79.98;100274.78;10378428;28;20073;-78
2023/10/21 07:43:57;;;;;;;6.95;4.68;;;;;;;14.79;79.02;100313.81;10378621;28;20145;-78
2023/10/21 07:48:58;;;;;;;6.35;4.63;;;;;;;15.22;76.68;100314.44;10377454;28;20137;-78
2023/10/21 07:53:59;;;;;;;8.18;4.60;;;;;;;15.70;75.17;100297.53;10377795;28;20042;-78
2023/10/21 07:58:59;;;;;;;9.07;4.93;;;;;;;15.67;73.22;100255.06;10377168;28;20091;-78
2023/10/21 08:04:00;;;;;;;19.95;5.85;;;;;;;15.97;72.59;100234.97;10377165;28;20042;-79
2023/10/21 08:09:01;;;;;;;8.70;4.53;;;;;;;16.20;71.13;100172.88;10377192;28;20428;-79
2023/10/21 08:14:03;;;;;;;6.32;4.38;;;;;;;16.93;69.39;100216.63;10377640;28;20045;-78
2023/10/21 08:19:05;;;;;;;10.40;5.07;;;;;;;17.41;67.92;100251.09;10376778;28;20136;-78
2023/10/21 08:24:07;;;;;;;8.18;5.32;;;;;;;17.68;67.02;100225.75;10375432;28;20140;-79
2023/10/21 08:29:10;;;;;;;17.30;5.63;;;;;;;18.15;65.65;100233.44;10376791;28;20030;-79
2023/10/21 08:34:12;;;;;;;11.73;5.93;;;;;;;17.93;64.31;100153.22;10375701;28;20034;-79
2023/10/21 08:39:13;;;;;;;12.90;6.05;;;;;;;19.02;63.06;100233.38;10374900;28;20045;-79
2023/10/21 08:44:14;;;;;;;8.07;6.05;;;;;;;18.93;61.53;100154.81;10375464;28;20072;-79
2023/10/21 08:49:17;;;;;;;11.95;5.68;;;;;;;19.13;60.17;100155.38;10376684;28;20085;-78
2023/10/21 08:54:19;;;;;;;12.65;7.35;;;;;;;19.65;58.33;100197.09;10375621;28;20042;-78
2023/10/21 08:59:20;;;;;;;15.98;7.53;;;;;;;20.12;57.55;100181.81;10375883;28;20049;-78
2023/10/21 09:04:22;;;;;;;14.95;8.18;;;;;;;19.82;55.84;100087.56;10374671;28;20042;-78
2023/10/21 09:09:26;;;;;;;22.13;11.13;;;;;;;20.65;53.25;100153.84;10375023;28;20088;-79
2023/10/21 09:14:29;;;;;;;23.63;11.35;;;;;;;20.84;51.83;100095.09;10373952;28;20409;-78
2023/10/21 09:19:30;;;;;;;16.45;9.93;;;;;;;21.10;49.61;100098.28;10374506;28;20465;-78
2023/10/21 09:24:31;;;;;;;13.38;8.93;;;;;;;21.32;47.15;100080.25;10374403;28;20087;-79
2023/10/21 09:29:31;;;;;;;11.88;9.13;;;;;;;22.00;43.90;100131.63;10374190;28;20055;-79
2023/10/21 09:34:33;;;;;;;13.70;9.43;;;;;;;21.97;43.36;100078.03;10373442;28;20117;-78
2023/10/21 09:39:43;;;;;;;11.18;8.75;;;;;;;22.20;41.82;100085.13;10373579;28;20033;-78
2023/10/21 09:44:44;;;;;;;12.27;8.90;;;;;;;22.02;40.93;100019.41;10373891;28;20074;-78
2023/10/21 09:49:46;;;;;;;12.30;8.55;;;;;;;22.65;39.66;100076.75;10374105;28;20072;-78
2023/10/21 09:55:03;;;;;;;13.77;10.27;;;;;;;23.01;37.80;100104.22;10372288;28;20141;-78
2023/10/21 10:00:08;;;;;;;10.82;7.75;;;;;;;22.58;38.11;100002.19;10372758;28;20041;-79
2023/10/21 10:05:09;;;;;;;11.25;7.68;;;;;;;23.10;38.59;100055.81;10372933;28;20387;-81
2023/10/21 10:10:13;;;;;;;13.82;7.75;;;;;;;23.26;36.63;100064.88;10355821;28;20045;-79
2023/10/21 10:15:29;;;;;;;10.52;6.75;;;;;;;23.55;34.92;100098.72;10372165;28;20476;-78
2023/10/21 10:20:31;;;;;;;14.27;7.07;;;;;;;23.60;35.75;100077.06;10372059;28;20493;-79
2023/10/21 10:25:34;;;;;;;11.50;6.10;;;;;;;23.80;34.74;100084.53;10372359;28;20498;-78
2023/10/21 10:30:38;;;;;;;12.43;7.07;;;;;;;23.91;34.63;100083.53;10354468;28;20053;-79
2023/10/21 10:35:43;;;;;;;8.00;5.45;;;;;;;23.87;34.44;100057.19;10372222;28;20505;-78
2023/10/21 10:40:44;;;;;;;6.97;5.38;;;;;;;23.70;34.18;100013.97;10372421;28;20136;-78
2023/10/21 10:45:47;;;;;;;9.68;5.05;;;;;;;24.00;33.99;100032.31;10372795;28;20145;-78
2023/10/21 10:50:47;;;;;;;10.43;4.97;;;;;;;23.95;33.99;100007.84;10379332;28;20413;-78
2023/10/21 10:55:53;;;;;;;7.65;4.43;;;;;;;24.31;33.61;100043.28;10379632;28;20034;-78
2023/10/21 11:00:56;;;;;;;7.85;4.80;;;;;;;24.23;33.34;100025.63;10379865;28;20176;-78
2023/10/21 11:05:59;;;;;;;7.80;4.93;;;;;;;24.41;32.35;100031.63;10380006;28;20176;-79
2023/10/21 11:11:04;;;;;;;9.57;4.45;;;;;;;24.06;30.94;99959.88;10379571;28;20412;-80
2023/10/21 11:16:07;;;;;;;12.55;6.18;;;;;;;24.47;31.77;100012.41;10380018;28;20062;-78
2023/10/21 11:21:08;;;;;;;27.65;13.43;;;;;;;24.55;31.40;99998.28;10379239;28;20064;-79
2023/10/21 11:26:08;;;;;;;11.70;6.45;;;;;;;24.59;31.45;100001.31;10377738;28;20047;-78
2023/10/21 11:31:10;;;;;;;5.13;3.75;;;;;;;24.32;31.01;99961.59;10379747;28;20133;-78
2023/10/21 11:36:12;;;;;;;7.05;3.30;;;;;;;24.46;30.79;99986.34;10377885;28;20129;-78
2023/10/21 11:41:14;;;;;;;7.10;2.67;;;;;;;24.07;30.31;99927.03;10378914;28;20560;-86
2023/10/21 11:46:17;;;;;;;28.50;2.97;;;;;;;24.35;30.73;99954.78;10378394;28;20057;-87
2023/10/21 11:51:17;;;;;;;5.18;2.65;;;;;;;24.37;29.70;99949.91;10378838;28;20108;-87
2023/10/21 12:38:57;;;;;;;12.27;4.32;;;;;;;24.12;29.97;99969.66;10376752;28;20042;-87
2023/10/21 12:44:00;;;;;;;10.45;4.47;;;;;;;23.75;30.48;99920.97;10377097;28;20069;-85
2023/10/21 12:49:07;;;;;;;;;;;;;;;23.96;31.17;99968.81;10377510;28;20049;-87
2023/10/21 12:54:10;;;;;;;20.10;12.35;;;;;;;23.62;30.78;99933.91;10375094;28;19917;-85
2023/10/21 12:59:11;;;;;;;17.90;6.43;;;;;;;23.46;30.82;99915.94;10376076;28;20119;-86
2023/10/21 13:04:14;;;;;;;8.48;4.38;;;;;;;23.61;30.46;99964.00;10374785;28;20081;-87
2023/10/21 13:09:24;;;;;;;11.37;3.60;;;;;;;22.89;31.13;99884.97;10375287;28;20064;-86
2023/10/21 13:14:27;;;;;;;13.73;4.07;;;;;;;23.12;31.64;99962.34;10375962;28;20520;-87
2023/10/21 13:19:29;;;;;;;13.30;3.70;;;;;;;22.94;32.04;99977.09;10374803;28;20121;-87
2023/10/21 13:24:29;;;;;;;10.55;3.30;;;;;;;22.40;32.27;99922.19;10375087;28;20131;-87
2023/10/21 13:29:32;;;;;;;15.48;3.42;;;;;;;22.00;33.45;99923.38;10374356;28;20119;-88
2023/10/21 13:34:33;;;;;;;44.13;6.38;;;;;;;21.69;35.30;99936.53;10374172;28;20042;-86
2023/10/21 13:39:34;;;;;;;9.48;3.70;;;;;;;21.38;35.13;99929.88;10375170;28;20045;-87
2023/10/21 13:44:36;;;;;;;24.75;15.05;;;;;;;21.35;36.06;99982.50;10374001;28;20081;-87
2023/10/21 13:49:41;;;;;;;84.90;13.13;;;;;;;20.79;37.93;99976.25;10374162;28;20037;-87
2023/10/21 13:54:43;;;;;;;108.97;16.35;;;;;;;20.39;39.68;99985.19;10373674;28;20042;-87
2023/10/21 13:59:47;;;;;;;156.75;22.95;;;;;;;20.02;41.95;99998.25;10373139;28;20174;-88
2023/10/21 14:04:48;;;;;;;49.92;14.05;;;;;;;18.84;42.06;99865.53;10373420;28;20072;-87
2023/10/21 14:09:49;;;;;;;49.92;15.43;;;;;;;18.93;42.89;99932.25;10372965;28;20048;-87
2023/10/21 14:14:49;;;;;;;140.82;21.17;;;;;;;18.62;44.38;99935.19;10372320;28;20052;-87
2023/10/21 14:19:53;;;;;;;41.55;14.32;;;;;;;18.76;44.27;99995.88;10372759;28;20082;-87
2023/10/21 14:24:54;;;;;;;109.05;18.85;;;;;;;18.27;45.70;99961.97;10371357;28;20564;-87
2023/10/21 14:30:03;;;;;;;151.85;18.30;;;;;;;18.13;46.87;99990.94;10372936;28;20053;-86
2023/10/21 14:35:08;;;;;;;77.82;17.70;;;;;;;17.92;46.42;100003.78;10371957;28;20038;-86
2023/10/21 14:40:11;;;;;;;55.95;11.23;;;;;;;17.92;45.72;100009.16;10364885;28;20082;-79
2023/10/21 14:45:12;;;;;;;47.67;13.60;;;;;;;18.05;45.39;100021.59;10323407;28;20507;-79
2023/10/21 14:50:13;;;;;;;42.08;8.73;;;;;;;18.02;45.17;100040.88;10359256;28;20045;-76
2023/10/21 14:55:14;;;;;;;27.52;8.55;;;;;;;17.98;45.54;100039.69;10353575;28;20133;-80
2023/10/21 15:00:16;;;;;;;49.38;11.18;;;;;;;17.29;46.75;99958.31;10347057;28;20040;-75
2023/10/21 15:05:18;;;;;;;23.38;9.15;;;;;;;17.38;46.73;99996.44;10348647;28;20049;-76
2023/10/21 15:10:20;;;;;;;24.13;7.40;;;;;;;17.50;47.21;100040.31;10340993;28;20571;-78
2023/10/21 15:15:22;;;;;;;10.13;4.60;;;;;;;17.55;46.52;100037.81;10331429;28;20046;-86
2023/10/21 15:20:22;;;;;;;23.05;4.47;;;;;;;17.32;46.96;100009.72;10342109;28;20111;-84
2023/10/21 15:25:23;;;;;;;16.95;4.68;;;;;;;17.39;46.85;100028.44;10330880;28;20092;-75
2023/10/21 15:30:24;;;;;;;9.70;4.65;;;;;;;16.81;47.25;99922.22;10352803;28;20068;-76
2023/10/21 15:35:25;;;;;;;11.85;4.60;;;;;;;17.48;46.74;100000.28;10334547;28;20426;-77
2023/10/21 15:40:30;;;;;;;14.55;4.78;;;;;;;17.66;46.87;100023.66;10343076;28;20050;-75
2023/10/21 15:45:31;;;;;;;17.10;5.70;;;;;;;17.60;46.93;100011.09;10358900;28;20061;-83
2023/10/21 15:50:32;;;;;;;22.58;6.70;;;;;;;17.34;47.48;99969.22;10354967;28;20050;-78
2023/10/21 15:55:32;;;;;;;33.03;9.90;;;;;;;17.89;47.36;100051.75;10359440;28;20180;-78
2023/10/21 16:00:34;;;;;;;25.63;11.02;;;;;;;17.87;47.16;100043.09;10356346;28;20038;-79
2023/10/21 16:05:35;;;;;;;33.53;11.88;;;;;;;17.96;47.49;100063.25;10356551;28;20050;-77
2023/10/21 16:10:36;;;;;;;27.10;10.35;;;;;;;17.93;48.12;100045.72;10354423;28;20058;-79
2023/10/21 16:15:36;;;;;;;26.13;12.32;;;;;;;17.95;47.89;100051.69;10355527;28;20137;-79
2023/10/21 16:20:37;;;;;;;28.80;14.30;;;;;;;17.86;48.42;100046.81;10359243;28;20053;-80
2023/10/21 16:25:39;;;;;;;39.30;16.38;;;;;;;17.30;49.32;99973.41;10357903;28;20465;-80
2023/10/21 16:30:40;;;;;;;55.28;21.52;;;;;;;17.70;49.69;100032.91;10353939;28;20038;-80
2023/10/21 16:35:44;;;;;;;47.05;24.63;;;;;;;17.76;49.07;100047.31;10355528;28;20049;-79
2023/10/21 16:40:46;;;;;;;47.63;24.70;;;;;;;17.65;48.47;100013.97;10354317;28;20057;-80
2023/10/21 16:45:47;;;;;;;37.78;22.70;;;;;;;18.06;47.88;100057.38;10353215;28;20041;-80
2023/10/21 16:50:48;;;;;;;39.13;20.08;;;;;;;18.07;47.14;100051.78;10353422;28;20494;-78
2023/10/21 16:55:49;;;;;;;33.05;19.90;;;;;;;18.22;46.80;100062.16;10353816;28;20120;-81
2023/10/21 17:00:50;;;;;;;32.38;19.65;;;;;;;18.28;46.59;100065.78;10354214;28;20096;-79
2023/10/21 17:05:55;;;;;;;32.97;17.95;;;;;;;18.22;46.24;100065.66;10353990;28;20041;-80
2023/10/21 17:10:56;;;;;;;29.63;18.48;;;;;;;18.12;46.20;100037.66;10353555;28;20042;-79
2023/10/21 17:15:57;;;;;;;30.33;18.40;;;;;;;18.09;46.42;100048.84;10352322;28;20447;-79
2023/10/21 17:20:58;;;;;;;33.22;19.42;;;;;;;18.41;45.54;100087.16;10353813;28;20039;-79
2023/10/21 17:25:59;;;;;;;37.78;18.98;;;;;;;18.14;45.68;100057.88;10351187;28;20038;-76
2023/10/21 17:30:59;;;;;;;35.50;18.25;;;;;;;18.07;45.95;100059.84;10365553;28;20037;-76
2023/10/21 17:36:01;;;;;;;33.28;17.08;;;;;;;17.63;46.49;100016.03;10374165;28;20485;-76
2023/10/21 17:41:02;;;;;;;31.40;18.15;;;;;;;17.66;47.32;100058.56;10372935;28;20460;-77
2023/10/21 17:46:04;;;;;;;52.85;19.85;;;;;;;17.64;48.55;100103.63;10373208;28;20041;-79
2023/10/21 17:51:05;;;;;;;42.08;19.15;;;;;;;17.17;48.96;100054.88;10373705;28;20080;-75
2023/10/21 17:56:06;;;;;;;44.63;19.70;;;;;;;17.31;49.81;100118.13;10373480;28;20525;-77
2023/10/21 18:01:06;;;;;;;85.80;20.95;;;;;;;17.14;51.21;100125.09;10373080;28;20080;-76
2023/10/21 18:06:08;;;;;;;60.80;20.02;;;;;;;16.94;52.42;100109.09;10372018;28;20030;-76
2023/10/21 18:11:10;;;;;;;60.67;20.17;;;;;;;16.47;52.87;100056.72;10373178;28;20116;-78
2023/10/21 18:16:11;;;;;;;39.75;19.42;;;;;;;16.71;53.79;100125.69;10372766;28;20064;-78
2023/10/21 18:21:12;;;;;;;40.50;18.77;;;;;;;16.66;54.62;100145.13;10373279;28;20048;-78
2023/10/21 18:26:13;;;;;;;40.20;18.85;;;;;;;16.59;55.04;100156.91;10372065;28;20038;-77
2023/10/21 18:31:14;;;;;;;37.95;17.45;;;;;;;16.13;55.28;100097.03;10372393;28;20042;-75
2023/10/21 18:36:15;;;;;;;34.53;18.33;;;;;;;16.08;56.42;100118.28;10372404;28;20515;-77
2023/10/21 18:41:16;;;;;;;39.50;18.27;;;;;;;15.75;57.34;100094.22;10371891;28;20057;-77
2023/10/21 18:46:17;;;;;;;33.75;16.75;;;;;;;16.09;57.76;100165.47;10371820;28;20445;-77
2023/10/21 18:51:24;;;;;;;36.30;19.73;;;;;;;15.90;58.32;100153.75;10372778;28;20132;-77
2023/10/21 18:56:25;;;;;;;48.88;22.90;;;;;;;15.83;59.17;100171.69;10372901;28;20413;-76
2023/10/21 19:01:34;;;;;;;44.80;21.58;;;;;;;15.17;61.18;100076.09;10371904;28;20061;-77
2023/10/21 19:06:36;;;;;;;41.13;23.08;;;;;;;15.42;60.09;100145.06;10372477;28;20117;-77
2023/10/21 19:11:36;;;;;;;41.80;24.15;;;;;;;15.51;59.82;100173.28;10379522;28;20034;-76
2023/10/21 19:16:37;;;;;;;44.72;23.88;;;;;;;15.39;60.87;100170.38;10379673;28;20037;-77
2023/10/21 19:21:38;;;;;;;51.30;23.45;;;;;;;15.22;61.88;100169.94;10379660;28;20393;-77
2023/10/21 19:26:39;;;;;;;57.78;20.73;;;;;;;15.09;62.23;100175.25;10378565;28;20042;-77
2023/10/21 19:31:40;;;;;;;42.03;19.63;;;;;;;15.03;62.34;100184.91;10379632;28;20041;-77
2023/10/21 19:36:41;;;;;;;47.42;19.83;;;;;;;14.43;62.90;100100.94;10378259;28;20049;-76
2023/10/21 19:41:42;;;;;;;47.78;21.58;;;;;;;14.82;63.23;100160.97;10372218;28;20072;-78
2023/10/21 19:46:43;;;;;;;46.15;21.77;;;;;;;14.90;64.04;100205.44;10347562;28;20042;-78
2023/10/21 19:51:47;;;;;;;35.08;20.85;;;;;;;13.90;66.42;100066.75;10339927;28;20042;-83
2023/10/21 19:56:48;;;;;;;53.20;21.55;;;;;;;13.92;65.06;100098.63;10351354;28;20049;-82
2023/10/21 20:01:50;;;;;;;38.85;21.27;;;;;;;14.32;66.04;100187.00;10337631;28;20048;-82
2023/10/21 20:06:51;;;;;;;53.75;21.55;;;;;;;14.24;66.67;100213.88;10337164;28;20038;-81
2023/10/21 20:11:52;;;;;;;46.65;23.30;;;;;;;14.14;66.76;100225.72;10336809;28;20034;-80
2023/10/21 20:16:53;;;;;;;46.55;23.10;;;;;;;13.70;67.03;100173.44;10336479;28;20038;-80
2023/10/21 20:21:53;;;;;;;57.25;22.83;;;;;;;13.74;67.69;100191.72;10334575;28;20094;-79
2023/10/21 20:26:54;;;;;;;71.25;24.67;;;;;;;13.67;67.82;100208.53;10337064;28;20557;-80
2023/10/21 20:31:55;;;;;;;53.83;21.40;;;;;;;13.57;68.38;100218.66;10336178;28;20046;-79
2023/10/21 20:36:56;;;;;;;50.35;22.20;;;;;;;13.08;68.89;100165.19;10336072;28;20042;-82
2023/10/21 20:41:56;;;;;;;69.57;23.13;;;;;;;13.10;69.33;100201.34;10335763;28;20120;-83
2023/10/21 20:46:57;;;;;;;52.13;23.35;;;;;;;12.68;69.86;100138.06;10363801;28;20053;-84
2023/10/21 20:52:03;;;;;;;44.55;23.50;;;;;;;13.13;70.32;100237.44;10369614;28;20046;-83
2023/10/21 20:57:04;;;;;;;42.47;21.60;;;;;;;13.09;70.17;100233.50;10334703;28;20184;-77
2023/10/21 21:02:06;;;;;;;54.72;22.08;;;;;;;12.90;70.52;100227.75;10334978;28;20046;-79
2023/10/21 21:07:07;;;;;;;54.95;22.30;;;;;;;12.78;71.26;100231.91;10318149;28;20129;-79
2023/10/21 21:12:07;;;;;;;54.38;23.25;;;;;;;12.56;71.41;100210.50;10335385;28;20046;-79
2023/10/21 21:17:08;;;;;;;75.93;23.95;;;;;;;11.88;71.85;100143.16;10334193;28;20513;-78
2023/10/21 21:22:09;;;;;;;44.45;22.65;;;;;;;12.45;72.32;100272.25;10333653;28;20089;-77
2023/10/21 21:27:10;;;;;;;61.25;22.73;;;;;;;12.22;72.94;100255.47;10333512;28;20121;-78
2023/10/21 21:32:11;;;;;;;43.53;20.83;;;;;;;12.35;73.20;100292.97;10333358;28;20553;-77
2023/10/21 21:37:12;;;;;;;56.13;22.58;;;;;;;12.31;72.94;100302.34;10332815;28;20034;-78
2023/10/21 21:42:13;;;;;;;40.80;22.20;;;;;;;11.46;73.35;100175.56;10333623;28;20072;-77
2023/10/21 21:47:14;;;;;;;44.28;22.05;;;;;;;12.33;72.88;100310.97;10332856;28;20119;-78
2023/10/21 21:52:15;;;;;;;39.00;22.02;;;;;;;11.80;73.04;100238.16;10333596;28;20038;-78
2023/10/21 21:57:16;;;;;;;50.25;21.83;;;;;;;12.31;73.27;100334.31;10332904;28;20482;-78
2023/10/21 22:02:18;;;;;;;42.80;23.33;;;;;;;12.20;73.31;100345.38;10331890;28;20034;-78
2023/10/21 22:07:21;;;;;;;58.72;21.20;;;;;;;11.99;73.76;100314.91;10331545;28;20046;-78
2023/10/21 22:12:21;;;;;;;46.63;22.05;;;;;;;12.27;73.47;100365.78;10332034;28;20042;-78
2023/10/21 22:17:22;;;;;;;39.55;21.80;;;;;;;12.21;74.12;100376.34;10332166;28;20401;-78
2023/10/21 22:22:23;;;;;;;47.80;22.63;;;;;;;11.76;74.46;100320.22;10331661;28;20054;-82
2023/10/21 22:27:27;;;;;;;40.28;21.05;;;;;;;11.98;74.75;100345.19;10331326;28;20531;-81
2023/10/21 22:32:27;;;;;;;40.85;21.15;;;;;;;12.08;74.67;100376.91;10332074;28;20506;-81
2023/10/21 22:37:28;;;;;;;44.63;20.30;;;;;;;11.34;75.04;100265.59;10331352;28;20034;-81
2023/10/21 22:42:29;;;;;;;37.28;20.73;;;;;;;11.50;74.91;100293.09;10332333;28;20070;-80
2023/10/21 22:47:32;;;;;;;32.50;19.00;;;;;;;11.83;75.29;100365.56;10340260;28;20053;-80
2023/10/21 22:52:33;;;;;;;35.55;19.33;;;;;;;11.77;75.62;100359.09;10339962;28;20038;-80
2023/10/21 22:57:36;;;;;;;32.33;19.05;;;;;;;11.61;75.86;100338.75;10339485;28;20502;-80
2023/10/21 23:02:39;;;;;;;30.52;17.73;;;;;;;12.06;75.82;100400.25;10338618;28;20045;-80
2023/10/21 23:07:40;;;;;;;29.48;17.63;;;;;;;11.80;75.77;100357.94;10339348;28;20046;-84
2023/10/21 23:12:41;;;;;;;29.85;16.15;;;;;;;11.98;75.63;100392.28;10338980;28;20034;-80
2023/10/21 23:17:49;;;;;;;33.83;16.75;;;;;;;12.00;77.44;100395.63;10338430;28;20047;-79
2023/10/21 23:22:51;;;;;;;31.73;17.23;;;;;;;11.73;76.40;100360.47;10339062;28;20035;-79
2023/10/21 23:27:51;;;;;;;36.10;16.83;;;;;;;12.08;76.62;100414.19;10339167;28;20104;-79